Dallas, Indiana
Current Conditions -  °F | °C
As of 2:15 AM on Saturday 25 Oct 2014 (Local Time) from KMZZ Reporting Station
Scattered Clouds Scattered Clouds  
Wind Chill: 48°   Ceiling: Unl
Heat Index: 49°   Visibility: 7mi
Dew Point: 47°   Wind: 5mph
Humidity: 91%   Direction: 190°S
Pressure: 29.98"   Gusts: NA
Location:  40.8265°N, 85.6204°W
Report Text: KMZZ 250615Z AUTO 19004KT 7SM SCT095 10/08 A2998 RMK AO2 T00960082
Loading
Personal Weather Stations






























Interactive Weather Map
Tropical Storm Tracking
New forecast layout! Learn more

10-Day Weather Forecast

Advertisements
Track Severe Weather on mobile